Accueil
METAR-TAF:

METAR-TAF

Aéroports :

Sabadell, Espagne

latitude: 41-31N, longitude: 002-06E, altitude: 250 m

Observation

Le bulletin a été fait il y a 28 minutes, à 01:30 UTC
Vent calme
Température 23°C
Humidité 69%
Pression 1019 hPa
Visibilité 10 km ou plus

METAR: LELL 240130Z AUTO 00000KT 9999 NCD 23/17 Q1019

Heure: 03:58 (01:58 UTC)

Prévision

Le bulletin a été fait il y a 11 heures et 58 minutes, à 14:00 UTC
Prévision valable du 23 à 15 UTC au 24 à 15 UTC
Vent 10 kt de sud
Visibilité 10 km ou plus
Quelques nuages à une hauteur de 3000 ft
Evoluant progressivement
du 23 à 17 UTC au 23 à 19 UTC
Vent 3 kt de direction variable
Evoluant progressivement
du 24 à 08 UTC au 24 à 10 UTC
Vent 8 kt de sud

TAF: LELL 231400Z 2315/2415 19010KT 9999 FEW030 TX34/2413Z TN20/2405Z BECMG 2317/2319 VRB03KT BECMG 2408/2410 18008KT

Observations et prévisions météorologiques de plus de 4000 aéroports (messages METAR et TAF).

Les stations disponibles sont représentées par des disques jaunes et rouges sur la carte.

Passer la souris dessus pour voir le nom de la station.

Cliquer dessus pour voir les observations et prévisions météorologiques.

Pour changer de carte: cliquez sur les boutons verts avec une croix noire pour zoomer, sur le bouton vert avec un tiret pour effectuer un zoom arrière, ou sur les flèches vertes pour les cartes adjacentes.


METAR-TAF: